createdAt,value
2022-09-04T00:01:45.251Z,7.30
2022-09-04T00:04:25.610Z,7.47
2022-09-04T00:07:06.272Z,5.43
2022-09-04T00:09:44.448Z,6.57
2022-09-04T00:12:26.769Z,5.70
2022-09-04T00:15:04.006Z,5.17
2022-09-04T00:17:40.039Z,8.27
2022-09-04T00:20:14.021Z,6.13
2022-09-04T00:22:52.424Z,6.27
2022-09-04T00:25:29.538Z,6.70
2022-09-04T00:28:05.878Z,7.40
2022-09-04T00:30:41.860Z,5.90
2022-09-04T00:33:20.187Z,4.70
2022-09-04T00:35:55.248Z,6.27
2022-09-04T00:38:36.525Z,5.40
2022-09-04T00:41:16.442Z,5.07
2022-09-04T00:44:28.490Z,5.20
2022-09-04T00:47:27.992Z,5.03
2022-09-04T00:50:30.064Z,4.33
2022-09-04T00:53:40.544Z,4.30
2022-09-04T00:57:17.094Z,4.80
2022-09-04T01:00:08.762Z,5.30
2022-09-04T01:03:19.585Z,4.20
2022-09-04T01:06:29.502Z,5.27
2022-09-04T01:09:50.075Z,4.63
2022-09-04T01:12:33.479Z,6.33
2022-09-04T01:15:15.621Z,4.50
2022-09-04T01:18:05.087Z,4.07
2022-09-04T01:20:52.244Z,3.80
2022-09-04T01:24:00.269Z,10.53
2022-09-04T01:26:41.211Z,6.87
2022-09-04T01:29:25.502Z,3.83
2022-09-04T01:32:02.878Z,4.57
2022-09-04T01:34:43.319Z,4.80
2022-09-04T01:37:42.063Z,4.30
2022-09-04T01:40:35.197Z,6.20
2022-09-04T01:43:11.268Z,3.93
2022-09-04T01:46:07.053Z,4.37
2022-09-04T01:48:45.071Z,5.73
2022-09-04T01:51:25.358Z,4.33
2022-09-04T01:54:12.234Z,3.03
2022-09-04T01:56:49.950Z,3.70
2022-09-04T01:59:30.890Z,3.63
2022-09-04T02:02:13.408Z,3.17
2022-09-04T02:04:51.432Z,3.57
2022-09-04T02:07:29.583Z,2.63
2022-09-04T02:10:13.638Z,5.13
2022-09-04T02:12:50.966Z,5.80
2022-09-04T02:15:35.607Z,3.37
2022-09-04T02:18:14.613Z,4.10
2022-09-04T02:20:54.127Z,2.93
2022-09-04T02:23:32.772Z,4.57
2022-09-04T02:26:08.518Z,2.83
2022-09-04T02:28:54.255Z,4.43
2022-09-04T02:31:34.711Z,3.17
2022-09-04T02:34:09.801Z,3.80
2022-09-04T02:36:45.873Z,5.37
2022-09-04T02:39:34.597Z,3.57
2022-09-04T02:42:13.276Z,5.53
2022-09-04T02:44:52.807Z,3.37
2022-09-04T02:47:32.629Z,5.00
2022-09-04T02:50:12.252Z,2.87
2022-09-04T02:53:01.898Z,4.90
2022-09-04T02:55:46.624Z,4.50
2022-09-04T02:58:33.393Z,3.30
2022-09-04T03:01:11.107Z,3.73
2022-09-04T03:03:48.986Z,3.73
2022-09-04T03:06:23.772Z,3.00
2022-09-04T03:09:00.654Z,4.50
2022-09-04T03:11:36.818Z,3.77
2022-09-04T03:14:13.296Z,3.57
2022-09-04T03:16:46.450Z,3.07
2022-09-04T03:19:22.484Z,3.87
2022-09-04T03:21:58.275Z,4.60
2022-09-04T03:24:34.028Z,3.30
2022-09-04T03:27:06.180Z,4.80
2022-09-04T03:29:43.259Z,4.67
2022-09-04T03:32:21.976Z,3.40
2022-09-04T03:34:58.429Z,2.87
2022-09-04T03:37:41.614Z,4.50
2022-09-04T03:40:30.739Z,3.53
2022-09-04T03:43:41.271Z,2.67
2022-09-04T03:46:23.533Z,3.53
2022-09-04T03:49:13.105Z,3.57
2022-09-04T03:51:56.605Z,2.10
2022-09-04T03:54:43.239Z,4.70
2022-09-04T03:57:29.086Z,3.10
2022-09-04T04:00:13.239Z,3.03
2022-09-04T04:03:07.091Z,4.30
2022-09-04T04:05:56.039Z,2.97
2022-09-04T04:09:01.911Z,2.97
2022-09-04T04:11:55.059Z,3.33
2022-09-04T04:14:43.623Z,3.43
2022-09-04T04:17:44.433Z,3.53
2022-09-04T04:20:24.469Z,3.43
2022-09-04T04:23:22.917Z,4.10
2022-09-04T04:26:08.742Z,4.27
2022-09-04T04:29:08.581Z,2.53
2022-09-04T04:32:11.488Z,6.07
2022-09-04T04:34:53.955Z,4.67
2022-09-04T04:37:35.057Z,2.90
2022-09-04T04:40:13.249Z,2.93
2022-09-04T04:42:51.355Z,2.83
2022-09-04T04:46:01.101Z,2.83
2022-09-04T04:49:19.766Z,5.53
2022-09-04T04:52:17.838Z,3.07
2022-09-04T04:55:17.034Z,2.50
2022-09-04T04:58:20.910Z,3.40
2022-09-04T05:00:56.834Z,3.17
2022-09-04T05:03:35.052Z,4.33
2022-09-04T05:06:12.602Z,2.67
2022-09-04T05:08:48.767Z,3.33
2022-09-04T05:11:30.388Z,4.67
2022-09-04T05:14:15.008Z,3.40
2022-09-04T05:16:56.012Z,3.43
2022-09-04T05:19:33.880Z,2.97
2022-09-04T05:22:13.538Z,5.00
2022-09-04T05:24:55.639Z,3.87
2022-09-04T05:28:03.079Z,3.70
2022-09-04T05:30:47.489Z,4.30
2022-09-04T05:33:24.153Z,4.10
2022-09-04T05:36:02.559Z,4.90
2022-09-04T05:38:42.532Z,4.53
2022-09-04T05:41:27.516Z,3.37
2022-09-04T05:44:12.124Z,4.27
2022-09-04T05:46:57.493Z,3.70
2022-09-04T05:49:47.161Z,5.73
2022-09-04T05:52:36.621Z,3.70
2022-09-04T05:55:46.248Z,3.17
2022-09-04T05:58:34.097Z,4.23
2022-09-04T06:01:18.686Z,3.37
2022-09-04T06:04:12.301Z,3.13
2022-09-04T06:06:49.024Z,3.93
2022-09-04T06:09:32.862Z,3.87
2022-09-04T06:12:22.639Z,3.27
2022-09-04T06:15:14.879Z,3.40
2022-09-04T06:18:25.948Z,8.03
2022-09-04T06:21:14.685Z,4.70
2022-09-04T06:24:20.016Z,4.07
2022-09-04T06:27:23.535Z,4.20
2022-09-04T06:30:09.330Z,4.57
2022-09-04T06:33:09.937Z,6.03
2022-09-04T06:36:19.306Z,3.67
2022-09-04T06:39:11.856Z,4.03
2022-09-04T06:41:57.522Z,6.13
2022-09-04T06:44:47.203Z,5.23
2022-09-04T06:47:28.183Z,3.27
2022-09-04T06:50:16.006Z,4.17
2022-09-04T06:53:05.502Z,3.57
2022-09-04T06:55:44.541Z,4.37
2022-09-04T06:58:47.040Z,4.97
2022-09-04T07:01:22.166Z,4.90
2022-09-04T07:04:11.435Z,4.23
2022-09-04T07:06:57.204Z,2.77
2022-09-04T07:09:32.527Z,3.47
2022-09-04T07:12:37.709Z,4.03
2022-09-04T07:15:45.262Z,3.87
2022-09-04T07:18:35.048Z,4.70
2022-09-04T07:21:15.382Z,3.13
2022-09-04T07:23:57.788Z,3.20
2022-09-04T07:26:38.931Z,3.70
2022-09-04T07:29:32.644Z,5.17
2022-09-04T07:32:08.415Z,4.00
2022-09-04T07:34:48.675Z,3.40
2022-09-04T07:37:27.912Z,3.63
2022-09-04T07:40:09.049Z,4.17
2022-09-04T07:42:48.244Z,3.90
2022-09-04T07:45:32.322Z,3.73
2022-09-04T07:48:16.384Z,6.60
2022-09-04T07:51:04.887Z,4.00
2022-09-04T07:54:04.163Z,4.27
2022-09-04T07:56:54.573Z,4.90
2022-09-04T07:59:40.447Z,3.23
2022-09-04T08:02:30.207Z,3.07
2022-09-04T08:05:16.937Z,2.83
2022-09-04T08:08:15.219Z,3.53
2022-09-04T08:11:20.758Z,2.50
2022-09-04T08:14:12.987Z,2.40
2022-09-04T08:16:56.632Z,3.50
2022-09-04T08:19:47.089Z,5.47
2022-09-04T08:22:31.847Z,2.70
2022-09-04T08:25:17.836Z,3.40
2022-09-04T08:28:02.701Z,3.23
2022-09-04T08:30:40.852Z,2.77
2022-09-04T08:33:54.566Z,3.17
2022-09-04T08:36:31.605Z,3.30
2022-09-04T08:39:10.553Z,2.77
2022-09-04T08:42:31.419Z,2.10
2022-09-04T08:45:50.843Z,2.33
2022-09-04T08:49:12.574Z,2.37
2022-09-04T08:52:32.071Z,2.00
2022-09-04T08:55:27.591Z,3.53
2022-09-04T08:58:48.271Z,2.23
2022-09-04T09:02:01.475Z,1.30
2022-09-04T09:05:33.712Z,1.87
2022-09-04T09:09:03.964Z,3.30
2022-09-04T09:12:23.855Z,1.93
2022-09-04T09:15:50.256Z,1.90
2022-09-04T09:18:40.489Z,1.63
2022-09-04T09:21:22.043Z,2.47
2022-09-04T09:24:25.351Z,1.50
2022-09-04T09:27:12.013Z,1.80
2022-09-04T09:30:07.369Z,2.13
2022-09-04T09:33:35.382Z,1.37
2022-09-04T09:36:46.925Z,2.57
2022-09-04T09:40:08.854Z,1.83
2022-09-04T09:43:16.419Z,2.23
2022-09-04T09:46:28.818Z,2.47
2022-09-04T09:49:31.914Z,1.70
2022-09-04T09:53:05.608Z,1.33
2022-09-04T09:56:14.773Z,1.50
2022-09-04T09:59:33.719Z,2.73
2022-09-04T10:02:49.811Z,2.00
2022-09-04T10:05:56.388Z,2.80
2022-09-04T10:09:07.225Z,1.43
2022-09-04T10:12:12.896Z,5.20
2022-09-04T10:15:37.394Z,1.87
2022-09-04T10:19:11.405Z,2.30
2022-09-04T10:22:21.638Z,1.33
2022-09-04T10:25:39.618Z,2.60
2022-09-04T10:28:45.336Z,1.40
2022-09-04T10:31:38.698Z,3.20
2022-09-04T10:34:27.903Z,1.60
2022-09-04T10:37:11.245Z,2.47
2022-09-04T10:40:14.409Z,1.70
2022-09-04T10:43:09.604Z,1.40
2022-09-04T10:45:40.033Z,2.00
2022-09-04T10:48:37.045Z,1.50
2022-09-04T10:51:34.471Z,2.27
2022-09-04T10:54:44.984Z,3.03
2022-09-04T10:57:59.818Z,3.20
2022-09-04T11:00:38.733Z,1.90
2022-09-04T11:03:51.486Z,2.40
2022-09-04T11:06:47.419Z,1.20
2022-09-04T11:09:39.866Z,2.63
2022-09-04T11:12:52.229Z,1.40
2022-09-04T11:16:13.881Z,2.13
2022-09-04T11:19:20.902Z,2.67
2022-09-04T11:22:34.932Z,1.50
2022-09-04T11:26:05.724Z,1.50
2022-09-04T11:29:02.050Z,2.67
2022-09-04T11:32:04.693Z,1.90
2022-09-04T11:35:25.843Z,1.30
2022-09-04T11:38:17.372Z,1.27
2022-09-04T11:41:32.743Z,2.67
2022-09-04T11:45:00.565Z,2.03
2022-09-04T11:48:15.517Z,1.70
2022-09-04T11:51:40.490Z,1.37
2022-09-04T11:55:02.709Z,1.73
2022-09-04T11:57:41.568Z,1.53
2022-09-04T12:00:12.840Z,1.93
2022-09-04T12:03:31.989Z,1.80
2022-09-04T12:06:37.380Z,3.10
2022-09-04T12:09:51.608Z,1.40
2022-09-04T12:13:14.755Z,3.63
2022-09-04T12:16:33.027Z,1.43
2022-09-04T12:19:30.849Z,1.50
2022-09-04T12:22:51.715Z,2.07
2022-09-04T12:25:49.670Z,2.10
2022-09-04T12:29:18.097Z,2.07
2022-09-04T12:32:16.576Z,1.70
2022-09-04T12:35:32.064Z,2.63
2022-09-04T12:38:26.413Z,2.03
2022-09-04T12:41:06.260Z,1.77
2022-09-04T12:43:51.282Z,1.60
2022-09-04T12:46:48.696Z,1.73
2022-09-04T12:49:41.947Z,1.80
2022-09-04T12:52:27.757Z,1.83
2022-09-04T12:55:09.985Z,1.83
2022-09-04T12:57:49.609Z,1.50
2022-09-04T13:00:19.131Z,1.40
2022-09-04T13:03:10.461Z,1.33
2022-09-04T13:06:03.953Z,1.20
2022-09-04T13:08:53.441Z,1.30
2022-09-04T13:11:45.097Z,3.03
2022-09-04T13:14:48.775Z,1.20
2022-09-04T13:17:28.605Z,1.47
2022-09-04T13:20:14.195Z,1.70
2022-09-04T13:23:01.860Z,1.20
2022-09-04T13:25:48.443Z,1.60
2022-09-04T13:28:30.262Z,2.03
2022-09-04T13:31:44.584Z,1.30
2022-09-04T13:34:23.963Z,3.20
2022-09-04T13:37:07.631Z,1.60
2022-09-04T13:40:03.162Z,1.37
2022-09-04T13:43:33.199Z,1.60
2022-09-04T13:46:08.572Z,1.30
2022-09-04T13:48:43.026Z,1.40
2022-09-04T13:51:16.221Z,1.70
2022-09-04T13:54:01.229Z,1.30
2022-09-04T13:56:34.331Z,2.70
2022-09-04T13:59:10.426Z,1.53
2022-09-04T14:01:46.210Z,1.63
2022-09-04T14:04:26.470Z,1.57
2022-09-04T14:07:06.123Z,1.30
2022-09-04T14:09:43.781Z,2.97
2022-09-04T14:12:35.820Z,1.90
2022-09-04T14:15:38.249Z,3.07
2022-09-04T14:18:31.221Z,1.57
2022-09-04T14:21:05.416Z,1.40
2022-09-04T14:23:48.181Z,1.40
2022-09-04T14:26:30.001Z,1.67
2022-09-04T14:29:06.436Z,1.60
2022-09-04T14:31:46.659Z,1.87
2022-09-04T14:34:27.692Z,1.80
2022-09-04T14:37:07.958Z,1.23
2022-09-04T14:39:44.510Z,3.67
2022-09-04T14:42:41.525Z,2.40
2022-09-04T14:45:29.953Z,2.00
2022-09-04T14:48:03.648Z,2.27
2022-09-04T14:50:44.694Z,1.70
2022-09-04T14:53:20.859Z,1.67
2022-09-04T14:56:18.519Z,2.03
2022-09-04T14:58:52.280Z,1.80
2022-09-04T15:01:25.659Z,1.23
2022-09-04T15:04:05.983Z,1.30
2022-09-04T15:07:07.533Z,2.00
2022-09-04T15:09:38.488Z,1.60
2022-09-04T15:12:24.760Z,1.33
2022-09-04T15:15:04.318Z,2.07
2022-09-04T15:17:35.943Z,2.87
2022-09-04T15:20:09.106Z,2.03
2022-09-04T15:22:43.810Z,0.90
2022-09-04T15:25:57.220Z,1.30
2022-09-04T15:28:29.909Z,1.43
2022-09-04T15:31:17.014Z,1.77
2022-09-04T15:33:48.565Z,1.37
2022-09-04T15:36:23.608Z,1.73
2022-09-04T15:38:56.197Z,1.90
2022-09-04T15:41:38.651Z,1.20
2022-09-04T15:44:20.300Z,1.00
2022-09-04T15:46:59.678Z,1.80
2022-09-04T15:49:43.014Z,1.87
2022-09-04T15:52:28.085Z,4.37
2022-09-04T15:55:10.444Z,2.60
2022-09-04T15:58:05.165Z,1.37
2022-09-04T16:00:39.249Z,1.20
2022-09-04T16:03:16.274Z,1.83
2022-09-04T16:05:51.207Z,1.50
2022-09-04T16:08:28.026Z,2.00
2022-09-04T16:11:04.208Z,4.83
2022-09-04T16:13:46.221Z,1.63
2022-09-04T16:16:21.335Z,1.47
2022-09-04T16:19:13.143Z,2.13
2022-09-04T16:21:53.446Z,1.53
2022-09-04T16:24:36.399Z,1.93
2022-09-04T16:27:10.677Z,1.20
2022-09-04T16:29:45.713Z,2.90
2022-09-04T16:32:22.354Z,1.73
2022-09-04T16:34:55.279Z,1.20
2022-09-04T16:37:32.471Z,1.43
2022-09-04T16:40:27.434Z,1.83
2022-09-04T16:43:02.623Z,1.83
2022-09-04T16:45:37.293Z,1.50
2022-09-04T16:48:43.189Z,1.43
2022-09-04T16:51:39.131Z,1.80
2022-09-04T16:54:08.100Z,1.40
2022-09-04T16:56:43.456Z,1.40
2022-09-04T16:59:23.223Z,1.87
2022-09-04T17:02:00.271Z,1.67
2022-09-04T17:04:40.045Z,1.53
2022-09-04T17:07:20.212Z,1.83
2022-09-04T17:10:03.570Z,2.80
2022-09-04T17:12:52.535Z,1.23
2022-09-04T17:15:31.896Z,2.03
2022-09-04T17:18:06.099Z,1.50
2022-09-04T17:22:55.568Z,2.87
2022-09-04T17:29:16.011Z,2.27
2022-09-04T17:29:18.963Z,1.47
2022-09-04T17:29:38.278Z,2.03
2022-09-04T17:34:18.165Z,1.40
2022-09-04T17:40:37.400Z,4.70
2022-09-04T17:40:47.640Z,1.43
2022-09-04T17:41:35.802Z,2.00
2022-09-04T17:44:46.135Z,2.57
2022-09-04T17:47:28.468Z,1.40
2022-09-04T17:49:57.452Z,1.63
2022-09-04T17:52:32.537Z,1.37
2022-09-04T17:55:08.150Z,2.93
2022-09-04T17:57:54.978Z,2.87
2022-09-04T18:00:29.679Z,3.27
2022-09-04T18:03:05.177Z,1.97
2022-09-04T18:05:47.337Z,2.40
2022-09-04T18:08:32.505Z,4.20
2022-09-04T18:11:08.153Z,1.63
2022-09-04T18:13:43.457Z,1.83
2022-09-04T18:17:12.227Z,1.53
2022-09-04T18:19:46.037Z,1.57
2022-09-04T18:22:33.546Z,2.37
2022-09-04T18:25:15.750Z,1.57
2022-09-04T18:28:06.523Z,1.93
2022-09-04T18:37:11.648Z,2.57
2022-09-04T18:37:21.677Z,2.37
2022-09-04T18:37:25.651Z,1.40
2022-09-04T18:39:51.897Z,1.93
2022-09-04T18:50:24.435Z,2.37
2022-09-04T18:50:32.727Z,2.60
2022-09-04T18:50:49.493Z,1.50
2022-09-04T18:51:21.942Z,4.10
2022-09-04T18:53:55.849Z,1.90
2022-09-04T18:56:28.546Z,2.13
2022-09-04T18:59:07.832Z,2.17
2022-09-04T19:01:45.526Z,4.00
2022-09-04T19:04:46.707Z,4.67
2022-09-04T19:07:31.762Z,3.57
2022-09-04T19:10:09.251Z,2.03
2022-09-04T19:12:55.967Z,1.87
2022-09-04T19:15:50.732Z,3.30
2022-09-04T19:18:27.429Z,4.07
2022-09-04T19:21:16.119Z,2.07
2022-09-04T19:23:51.919Z,3.43
2022-09-04T19:26:31.663Z,3.00
2022-09-04T19:29:10.396Z,2.30
2022-09-04T19:31:45.282Z,2.63
2022-09-04T19:34:20.531Z,1.80
2022-09-04T19:36:55.139Z,2.40
2022-09-04T19:46:02.490Z,2.63
2022-09-04T19:46:02.729Z,2.50
2022-09-04T19:46:15.954Z,1.67
2022-09-04T19:48:37.563Z,3.40
2022-09-04T19:53:24.517Z,2.27
2022-09-04T19:54:30.034Z,2.63
2022-09-04T19:57:31.986Z,5.93
2022-09-04T20:00:31.063Z,3.00
2022-09-04T20:03:02.526Z,3.23
2022-09-04T20:05:34.038Z,3.50
2022-09-04T20:08:15.418Z,2.90
2022-09-04T20:10:48.595Z,2.67
2022-09-04T20:13:27.172Z,1.87
2022-09-04T20:16:03.463Z,1.57
2022-09-04T20:18:39.581Z,2.87
2022-09-04T20:21:15.625Z,2.07
2022-09-04T20:23:49.628Z,1.90
2022-09-04T20:26:25.479Z,2.20
2022-09-04T20:29:08.111Z,2.83
2022-09-04T20:31:49.286Z,1.77
2022-09-04T20:34:30.286Z,2.27
2022-09-04T20:37:25.858Z,2.23
2022-09-04T20:40:06.166Z,1.80
2022-09-04T20:42:42.180Z,1.57
2022-09-04T20:48:49.718Z,3.30
2022-09-04T20:52:57.422Z,3.83
2022-09-04T20:52:59.846Z,1.97
2022-09-04T20:54:33.742Z,5.63
2022-09-04T21:00:48.166Z,2.77
2022-09-04T21:03:11.778Z,3.10
2022-09-04T21:03:27.872Z,2.77
2022-09-04T21:06:17.393Z,3.90
2022-09-04T21:08:57.910Z,2.63
2022-09-04T21:11:40.336Z,3.53
2022-09-04T21:14:19.672Z,4.73
2022-09-04T21:17:34.677Z,2.73
2022-09-04T21:20:34.433Z,3.20
2022-09-04T21:23:46.377Z,2.53
2022-09-04T21:27:00.994Z,3.63
2022-09-04T21:30:06.590Z,1.80
2022-09-04T21:33:26.747Z,2.37
2022-09-04T21:36:26.380Z,3.67
2022-09-04T21:39:34.144Z,2.97
2022-09-04T21:42:43.004Z,1.97
2022-09-04T21:45:36.634Z,2.53
2022-09-04T21:48:45.806Z,2.20
2022-09-04T21:51:44.763Z,4.07
2022-09-04T21:57:00.094Z,4.13
2022-09-04T22:02:27.274Z,3.33
2022-09-04T22:02:48.050Z,2.17
2022-09-04T22:04:35.346Z,3.87
2022-09-04T22:10:19.559Z,2.27
2022-09-04T22:13:31.928Z,3.67
2022-09-04T22:13:48.159Z,3.70
2022-09-04T22:16:33.581Z,6.67
2022-09-04T22:19:26.467Z,2.20
2022-09-04T22:22:09.039Z,3.27
2022-09-04T22:25:18.533Z,2.10
2022-09-04T22:28:17.027Z,3.40
2022-09-04T22:31:22.412Z,4.13
2022-09-04T22:34:46.815Z,4.67
2022-09-04T22:37:54.861Z,2.90
2022-09-04T22:40:56.818Z,2.20
2022-09-04T22:43:27.547Z,2.87
2022-09-04T22:46:36.913Z,2.60
2022-09-04T22:49:32.887Z,3.53
2022-09-04T22:52:49.821Z,2.87
2022-09-04T22:56:22.951Z,2.77
2022-09-04T22:59:25.892Z,2.23
2022-09-04T23:02:20.852Z,4.23
2022-09-04T23:05:16.919Z,3.27
2022-09-04T23:13:49.171Z,2.83
2022-09-04T23:13:58.274Z,7.23
2022-09-04T23:14:34.770Z,3.10
2022-09-04T23:17:28.269Z,3.13
2022-09-04T23:26:38.457Z,3.80
2022-09-04T23:26:48.844Z,2.53
2022-09-04T23:27:28.862Z,2.33
2022-09-04T23:30:25.762Z,3.00
2022-09-04T23:33:42.998Z,4.70
2022-09-04T23:37:02.340Z,2.57
2022-09-04T23:40:03.481Z,3.33
2022-09-04T23:43:03.647Z,2.33
2022-09-04T23:46:33.599Z,2.97
2022-09-04T23:49:35.582Z,3.13
2022-09-04T23:52:15.940Z,3.13
2022-09-04T23:55:06.926Z,3.63
2022-09-04T23:57:49.379Z,2.87
